sensor_id;sensor_type;location;lat;lon;timestamp;pressure;altitude;pressure_sealevel;temperature;humidity
64211;BME280;50528;48.514;14.394;2023-03-20T00:00:31;93863.96;;;8.20;73.56
64211;BME280;50528;48.514;14.394;2023-03-20T00:01:28;93869.17;;;8.18;73.53
64211;BME280;50528;48.514;14.394;2023-03-20T00:02:04;93869.01;;;8.18;73.56
64211;BME280;50528;48.514;14.394;2023-03-20T00:02:38;93869.02;;;8.19;73.63
64211;BME280;50528;48.514;14.394;2023-03-20T00:03:13;93866.59;;;8.23;73.69
64211;BME280;50528;48.514;14.394;2023-03-20T00:03:47;93869.02;;;8.24;73.73
64211;BME280;50528;48.514;14.394;2023-03-20T00:04:20;93864.89;;;8.24;73.61
64211;BME280;50528;48.514;14.394;2023-03-20T00:04:54;93867.33;;;8.23;73.60
64211;BME280;50528;48.514;14.394;2023-03-20T00:05:28;93872.60;;;8.26;73.50
64211;BME280;50528;48.514;14.394;2023-03-20T00:06:02;93870.46;;;8.26;73.49
64211;BME280;50528;48.514;14.394;2023-03-20T00:06:35;93868.91;;;8.27;73.57
64211;BME280;50528;48.514;14.394;2023-03-20T00:07:09;93866.19;;;8.27;73.49
64211;BME280;50528;48.514;14.394;2023-03-20T00:07:45;93868.94;;;8.28;73.59
64211;BME280;50528;48.514;14.394;2023-03-20T00:08:18;93866.45;;;8.29;73.46
64211;BME280;50528;48.514;14.394;2023-03-20T00:08:53;93872.84;;;8.30;73.55
64211;BME280;50528;48.514;14.394;2023-03-20T00:09:27;93870.52;;;8.30;73.47
64211;BME280;50528;48.514;14.394;2023-03-20T00:10:00;93867.95;;;8.30;73.59
64211;BME280;50528;48.514;14.394;2023-03-20T00:10:38;93872.96;;;8.32;73.56
64211;BME280;50528;48.514;14.394;2023-03-20T00:11:33;93873.46;;;8.33;73.53
64211;BME280;50528;48.514;14.394;2023-03-20T00:12:12;93871.59;;;8.31;73.52
64211;BME280;50528;48.514;14.394;2023-03-20T00:12:48;93871.01;;;8.31;73.50
64211;BME280;50528;48.514;14.394;2023-03-20T00:13:24;93871.39;;;8.32;73.49
64211;BME280;50528;48.514;14.394;2023-03-20T00:14:07;93870.98;;;8.32;73.35
64211;BME280;50528;48.514;14.394;2023-03-20T00:14:41;93869.55;;;8.34;73.38
64211;BME280;50528;48.514;14.394;2023-03-20T00:15:26;93869.33;;;8.31;73.35
64211;BME280;50528;48.514;14.394;2023-03-20T00:16:01;93870.30;;;8.32;73.30
64211;BME280;50528;48.514;14.394;2023-03-20T00:16:40;93871.14;;;8.32;73.26
64211;BME280;50528;48.514;14.394;2023-03-20T00:17:20;93869.45;;;8.34;73.25
64211;BME280;50528;48.514;14.394;2023-03-20T00:17:54;93870.53;;;8.35;73.25
64211;BME280;50528;48.514;14.394;2023-03-20T00:18:28;93868.20;;;8.36;73.20
64211;BME280;50528;48.514;14.394;2023-03-20T00:19:01;93871.81;;;8.39;73.25
64211;BME280;50528;48.514;14.394;2023-03-20T00:19:35;93873.73;;;8.40;73.19
64211;BME280;50528;48.514;14.394;2023-03-20T00:20:14;93867.69;;;8.42;73.13
64211;BME280;50528;48.514;14.394;2023-03-20T00:20:49;93875.07;;;8.42;73.03
64211;BME280;50528;48.514;14.394;2023-03-20T00:21:23;93871.83;;;8.42;73.03
64211;BME280;50528;48.514;14.394;2023-03-20T00:21:56;93871.63;;;8.42;73.03
64211;BME280;50528;48.514;14.394;2023-03-20T00:22:30;93870.65;;;8.44;72.99
64211;BME280;50528;48.514;14.394;2023-03-20T00:23:04;93871.56;;;8.45;73.01
64211;BME280;50528;48.514;14.394;2023-03-20T00:23:38;93870.73;;;8.45;73.10
64211;BME280;50528;48.514;14.394;2023-03-20T00:24:12;93872.98;;;8.45;73.00
64211;BME280;50528;48.514;14.394;2023-03-20T00:24:46;93874.86;;;8.46;73.03
64211;BME280;50528;48.514;14.394;2023-03-20T00:25:22;93871.64;;;8.46;72.96
64211;BME280;50528;48.514;14.394;2023-03-20T00:25:56;93874.50;;;8.45;73.00
64211;BME280;50528;48.514;14.394;2023-03-20T00:26:34;93871.40;;;8.45;73.00
64211;BME280;50528;48.514;14.394;2023-03-20T00:27:13;93873.34;;;8.45;73.14
64211;BME280;50528;48.514;14.394;2023-03-20T00:27:47;93875.77;;;8.45;73.19
64211;BME280;50528;48.514;14.394;2023-03-20T00:28:40;93876.85;;;8.45;73.22
64211;BME280;50528;48.514;14.394;2023-03-20T00:29:20;93875.58;;;8.44;73.22
64211;BME280;50528;48.514;14.394;2023-03-20T00:29:55;93876.23;;;8.42;73.13
64211;BME280;50528;48.514;14.394;2023-03-20T00:30:29;93873.45;;;8.43;73.28
64211;BME280;50528;48.514;14.394;2023-03-20T00:31:04;93869.80;;;8.41;73.27
64211;BME280;50528;48.514;14.394;2023-03-20T00:31:39;93872.93;;;8.43;73.27
64211;BME280;50528;48.514;14.394;2023-03-20T00:32:13;93871.31;;;8.43;73.30
64211;BME280;50528;48.514;14.394;2023-03-20T00:32:48;93872.84;;;8.44;73.27
64211;BME280;50528;48.514;14.394;2023-03-20T00:33:22;93870.61;;;8.44;73.26
64211;BME280;50528;48.514;14.394;2023-03-20T00:33:59;93871.56;;;8.45;73.24
64211;BME280;50528;48.514;14.394;2023-03-20T00:34:33;93871.98;;;8.45;73.23
64211;BME280;50528;48.514;14.394;2023-03-20T00:35:24;93872.27;;;8.44;73.21
64211;BME280;50528;48.514;14.394;2023-03-20T00:35:59;93874.20;;;8.43;73.27
64211;BME280;50528;48.514;14.394;2023-03-20T00:36:34;93872.02;;;8.41;73.19
64211;BME280;50528;48.514;14.394;2023-03-20T00:37:09;93870.30;;;8.42;73.25
64211;BME280;50528;48.514;14.394;2023-03-20T00:37:44;93876.23;;;8.43;73.19
64211;BME280;50528;48.514;14.394;2023-03-20T00:38:17;93874.29;;;8.42;73.19
64211;BME280;50528;48.514;14.394;2023-03-20T00:38:51;93872.78;;;8.43;73.24
64211;BME280;50528;48.514;14.394;2023-03-20T00:39:25;93875.18;;;8.43;73.19
64211;BME280;50528;48.514;14.394;2023-03-20T00:39:58;93877.13;;;8.43;73.30
64211;BME280;50528;48.514;14.394;2023-03-20T00:40:32;93878.51;;;8.44;73.24
64211;BME280;50528;48.514;14.394;2023-03-20T00:41:48;93877.31;;;8.44;73.14
64211;BME280;50528;48.514;14.394;2023-03-20T00:42:22;93877.73;;;8.39;72.98
64211;BME280;50528;48.514;14.394;2023-03-20T00:43:00;93877.96;;;8.40;73.13
64211;BME280;50528;48.514;14.394;2023-03-20T00:43:34;93877.69;;;8.40;73.09
64211;BME280;50528;48.514;14.394;2023-03-20T00:44:51;93877.05;;;8.41;73.15
64211;BME280;50528;48.514;14.394;2023-03-20T00:45:30;93877.24;;;8.40;73.04
64211;BME280;50528;48.514;14.394;2023-03-20T00:46:11;93876.39;;;8.40;73.14
64211;BME280;50528;48.514;14.394;2023-03-20T00:46:51;93877.85;;;8.40;73.11
64211;BME280;50528;48.514;14.394;2023-03-20T00:47:26;93875.08;;;8.39;73.15
64211;BME280;50528;48.514;14.394;2023-03-20T00:48:00;93875.39;;;8.40;73.19
64211;BME280;50528;48.514;14.394;2023-03-20T00:48:36;93875.07;;;8.39;73.17
64211;BME280;50528;48.514;14.394;2023-03-20T00:49:10;93875.92;;;8.40;73.15
64211;BME280;50528;48.514;14.394;2023-03-20T00:49:46;93875.01;;;8.41;73.22
64211;BME280;50528;48.514;14.394;2023-03-20T00:50:22;93874.32;;;8.41;73.26
64211;BME280;50528;48.514;14.394;2023-03-20T00:50:56;93872.11;;;8.40;73.22
64211;BME280;50528;48.514;14.394;2023-03-20T00:51:30;93871.11;;;8.40;73.17
64211;BME280;50528;48.514;14.394;2023-03-20T00:52:04;93873.39;;;8.41;73.21
64211;BME280;50528;48.514;14.394;2023-03-20T00:52:38;93876.70;;;8.42;73.20
64211;BME280;50528;48.514;14.394;2023-03-20T00:53:11;93872.40;;;8.43;73.23
64211;BME280;50528;48.514;14.394;2023-03-20T00:53:45;93870.95;;;8.43;73.19
64211;BME280;50528;48.514;14.394;2023-03-20T00:54:18;93871.13;;;8.45;73.28
64211;BME280;50528;48.514;14.394;2023-03-20T00:54:52;93875.80;;;8.45;73.25
64211;BME280;50528;48.514;14.394;2023-03-20T00:55:27;93871.42;;;8.44;73.17
64211;BME280;50528;48.514;14.394;2023-03-20T00:56:01;93872.67;;;8.43;73.20
64211;BME280;50528;48.514;14.394;2023-03-20T00:56:40;93868.89;;;8.48;73.24
64211;BME280;50528;48.514;14.394;2023-03-20T00:57:57;93864.55;;;8.42;73.21
64211;BME280;50528;48.514;14.394;2023-03-20T00:58:31;93860.77;;;8.37;73.18
64211;BME280;50528;48.514;14.394;2023-03-20T00:59:05;93868.02;;;8.40;73.19
64211;BME280;50528;48.514;14.394;2023-03-20T00:59:50;93868.65;;;8.41;73.18
64211;BME280;50528;48.514;14.394;2023-03-20T01:01:03;93870.60;;;8.39;73.15
64211;BME280;50528;48.514;14.394;2023-03-20T01:01:37;93870.72;;;8.39;73.12
64211;BME280;50528;48.514;14.394;2023-03-20T01:02:11;93869.96;;;8.39;73.16
64211;BME280;50528;48.514;14.394;2023-03-20T01:02:45;93869.20;;;8.39;73.24
64211;BME280;50528;48.514;14.394;2023-03-20T01:03:20;93870.68;;;8.40;73.19
64211;BME280;50528;48.514;14.394;2023-03-20T01:03:55;93868.35;;;8.41;73.18
64211;BME280;50528;48.514;14.394;2023-03-20T01:04:34;93868.57;;;8.42;73.32
64211;BME280;50528;48.514;14.394;2023-03-20T01:05:08;93869.74;;;8.43;73.25
64211;BME280;50528;48.514;14.394;2023-03-20T01:05:43;93870.78;;;8.42;73.33
64211;BME280;50528;48.514;14.394;2023-03-20T01:06:17;93872.27;;;8.41;73.48
64211;BME280;50528;48.514;14.394;2023-03-20T01:06:51;93869.52;;;8.42;73.43
64211;BME280;50528;48.514;14.394;2023-03-20T01:07:25;93871.36;;;8.43;73.36
64211;BME280;50528;48.514;14.394;2023-03-20T01:07:58;93868.33;;;8.42;73.28
64211;BME280;50528;48.514;14.394;2023-03-20T01:08:33;93863.93;;;8.40;73.42
64211;BME280;50528;48.514;14.394;2023-03-20T01:09:07;93870.45;;;8.41;73.37
64211;BME280;50528;48.514;14.394;2023-03-20T01:09:40;93870.02;;;8.44;73.56
64211;BME280;50528;48.514;14.394;2023-03-20T01:10:16;93868.55;;;8.41;73.53
64211;BME280;50528;48.514;14.394;2023-03-20T01:10:55;93867.94;;;8.42;73.50
64211;BME280;50528;48.514;14.394;2023-03-20T01:11:34;93860.92;;;8.39;73.43
64211;BME280;50528;48.514;14.394;2023-03-20T01:12:10;93864.48;;;8.41;73.40
64211;BME280;50528;48.514;14.394;2023-03-20T01:12:46;93864.81;;;8.38;73.38
64211;BME280;50528;48.514;14.394;2023-03-20T01:13:24;93865.91;;;8.38;73.44
64211;BME280;50528;48.514;14.394;2023-03-20T01:13:57;93863.73;;;8.38;73.39
64211;BME280;50528;48.514;14.394;2023-03-20T01:14:35;93856.80;;;8.32;73.33
64211;BME280;50528;48.514;14.394;2023-03-20T01:15:21;93864.23;;;8.36;73.37
64211;BME280;50528;48.514;14.394;2023-03-20T01:15:56;93863.90;;;8.36;73.28
64211;BME280;50528;48.514;14.394;2023-03-20T01:16:30;93861.08;;;8.36;73.29
64211;BME280;50528;48.514;14.394;2023-03-20T01:17:04;93862.08;;;8.37;73.30
64211;BME280;50528;48.514;14.394;2023-03-20T01:17:38;93864.27;;;8.37;73.19
64211;BME280;50528;48.514;14.394;2023-03-20T01:18:13;93864.34;;;8.38;73.12
64211;BME280;50528;48.514;14.394;2023-03-20T01:18:48;93863.50;;;8.37;73.14
64211;BME280;50528;48.514;14.394;2023-03-20T01:19:21;93861.56;;;8.35;73.12
64211;BME280;50528;48.514;14.394;2023-03-20T01:19:55;93863.45;;;8.38;73.03
64211;BME280;50528;48.514;14.394;2023-03-20T01:20:29;93862.60;;;8.38;73.05
64211;BME280;50528;48.514;14.394;2023-03-20T01:21:03;93861.09;;;8.35;72.97
64211;BME280;50528;48.514;14.394;2023-03-20T01:21:36;93864.27;;;8.36;72.92
64211;BME280;50528;48.514;14.394;2023-03-20T01:22:10;93863.04;;;8.35;72.89
64211;BME280;50528;48.514;14.394;2023-03-20T01:22:43;93865.30;;;8.35;72.88
64211;BME280;50528;48.514;14.394;2023-03-20T01:23:18;93860.99;;;8.35;72.89
64211;BME280;50528;48.514;14.394;2023-03-20T01:23:52;93862.95;;;8.33;72.91
64211;BME280;50528;48.514;14.394;2023-03-20T01:24:25;93861.35;;;8.32;72.97
64211;BME280;50528;48.514;14.394;2023-03-20T01:24:59;93859.83;;;8.32;73.02
64211;BME280;50528;48.514;14.394;2023-03-20T01:25:33;93857.91;;;8.31;73.15
64211;BME280;50528;48.514;14.394;2023-03-20T01:26:21;93861.98;;;8.30;73.10
64211;BME280;50528;48.514;14.394;2023-03-20T01:26:56;93858.98;;;8.29;73.20
64211;BME280;50528;48.514;14.394;2023-03-20T01:27:30;93860.73;;;8.28;73.23
64211;BME280;50528;48.514;14.394;2023-03-20T01:28:16;93857.90;;;8.28;73.19
64211;BME280;50528;48.514;14.394;2023-03-20T01:28:50;93860.17;;;8.27;73.30
64211;BME280;50528;48.514;14.394;2023-03-20T01:29:25;93860.45;;;8.25;73.34
64211;BME280;50528;48.514;14.394;2023-03-20T01:30:05;93860.63;;;8.23;73.28
64211;BME280;50528;48.514;14.394;2023-03-20T01:30:39;93858.68;;;8.21;73.38
64211;BME280;50528;48.514;14.394;2023-03-20T01:31:15;93855.35;;;8.20;73.44
64211;BME280;50528;48.514;14.394;2023-03-20T01:31:50;93859.96;;;8.19;73.39
64211;BME280;50528;48.514;14.394;2023-03-20T01:32:24;93857.39;;;8.19;73.45
64211;BME280;50528;48.514;14.394;2023-03-20T01:32:59;93859.48;;;8.18;73.43
64211;BME280;50528;48.514;14.394;2023-03-20T01:33:34;93862.26;;;8.18;73.45
64211;BME280;50528;48.514;14.394;2023-03-20T01:34:09;93858.75;;;8.18;73.45
64211;BME280;50528;48.514;14.394;2023-03-20T01:34:43;93858.80;;;8.19;73.51
64211;BME280;50528;48.514;14.394;2023-03-20T01:35:20;93862.08;;;8.20;73.56
64211;BME280;50528;48.514;14.394;2023-03-20T01:35:54;93862.40;;;8.20;73.64
64211;BME280;50528;48.514;14.394;2023-03-20T01:36:29;93865.23;;;8.22;73.80
64211;BME280;50528;48.514;14.394;2023-03-20T01:37:08;93866.13;;;8.21;73.64
64211;BME280;50528;48.514;14.394;2023-03-20T01:37:44;93866.38;;;8.17;73.56
64211;BME280;50528;48.514;14.394;2023-03-20T01:38:23;93868.07;;;8.18;73.64
64211;BME280;50528;48.514;14.394;2023-03-20T01:38:58;93867.59;;;8.17;73.70
64211;BME280;50528;48.514;14.394;2023-03-20T01:39:34;93868.48;;;8.17;73.63
64211;BME280;50528;48.514;14.394;2023-03-20T01:40:16;93865.92;;;8.18;73.71
64211;BME280;50528;48.514;14.394;2023-03-20T01:41:10;93867.22;;;8.18;73.78
64211;BME280;50528;48.514;14.394;2023-03-20T01:41:45;93867.76;;;8.16;73.84
64211;BME280;50528;48.514;14.394;2023-03-20T01:42:19;93871.23;;;8.16;73.86
64211;BME280;50528;48.514;14.394;2023-03-20T01:42:53;93871.30;;;8.17;73.87
64211;BME280;50528;48.514;14.394;2023-03-20T01:43:27;93872.11;;;8.16;73.89
64211;BME280;50528;48.514;14.394;2023-03-20T01:44:18;93872.71;;;8.16;73.91
64211;BME280;50528;48.514;14.394;2023-03-20T01:44:54;93872.96;;;8.12;73.90
64211;BME280;50528;48.514;14.394;2023-03-20T01:45:34;93875.13;;;8.10;73.98
64211;BME280;50528;48.514;14.394;2023-03-20T01:46:25;93876.17;;;8.10;73.96
64211;BME280;50528;48.514;14.394;2023-03-20T01:47:01;93876.69;;;8.08;74.00
64211;BME280;50528;48.514;14.394;2023-03-20T01:47:36;93878.70;;;8.09;74.18
64211;BME280;50528;48.514;14.394;2023-03-20T01:48:17;93876.35;;;8.11;74.20
64211;BME280;50528;48.514;14.394;2023-03-20T01:50:25;93879.73;;;8.00;74.45
64211;BME280;50528;48.514;14.394;2023-03-20T01:51:08;93881.15;;;8.00;74.51
64211;BME280;50528;48.514;14.394;2023-03-20T01:51:42;93884.60;;;8.03;74.53
64211;BME280;50528;48.514;14.394;2023-03-20T01:52:16;93880.48;;;8.01;74.65
64211;BME280;50528;48.514;14.394;2023-03-20T01:53:04;93880.17;;;7.99;74.69
64211;BME280;50528;48.514;14.394;2023-03-20T01:53:44;93882.89;;;7.94;74.60
64211;BME280;50528;48.514;14.394;2023-03-20T01:54:23;93880.78;;;7.91;74.77
64211;BME280;50528;48.514;14.394;2023-03-20T01:55:10;93880.55;;;7.91;74.72
64211;BME280;50528;48.514;14.394;2023-03-20T01:55:45;93879.30;;;7.91;74.72
64211;BME280;50528;48.514;14.394;2023-03-20T01:56:20;93876.08;;;7.91;74.76
64211;BME280;50528;48.514;14.394;2023-03-20T01:57:19;93878.98;;;7.94;74.82
64211;BME280;50528;48.514;14.394;2023-03-20T01:57:57;93877.31;;;7.95;74.73
64211;BME280;50528;48.514;14.394;2023-03-20T01:58:37;93880.14;;;7.96;74.84
64211;BME280;50528;48.514;14.394;2023-03-20T01:59:23;93877.17;;;7.97;74.83
64211;BME280;50528;48.514;14.394;2023-03-20T02:00:05;93878.45;;;7.94;74.65
64211;BME280;50528;48.514;14.394;2023-03-20T02:00:48;93881.34;;;7.95;74.68
64211;BME280;50528;48.514;14.394;2023-03-20T02:01:23;93882.20;;;7.96;74.73
64211;BME280;50528;48.514;14.394;2023-03-20T02:01:58;93879.83;;;7.98;74.78
64211;BME280;50528;48.514;14.394;2023-03-20T02:02:32;93880.36;;;7.98;74.82
64211;BME280;50528;48.514;14.394;2023-03-20T02:03:06;93884.38;;;8.00;74.80
64211;BME280;50528;48.514;14.394;2023-03-20T02:04:04;93883.00;;;7.99;74.87
64211;BME280;50528;48.514;14.394;2023-03-20T02:04:50;93884.67;;;7.99;74.80
64211;BME280;50528;48.514;14.394;2023-03-20T02:05:25;93883.98;;;7.99;74.80
64211;BME280;50528;48.514;14.394;2023-03-20T02:05:59;93880.48;;;8.04;74.99
64211;BME280;50528;48.514;14.394;2023-03-20T02:06:48;93882.31;;;8.11;74.89
64211;BME280;50528;48.514;14.394;2023-03-20T02:07:27;93883.00;;;8.09;74.63
64211;BME280;50528;48.514;14.394;2023-03-20T02:08:14;93882.17;;;7.97;74.84
64211;BME280;50528;48.514;14.394;2023-03-20T02:08:51;93878.13;;;7.92;74.92
64211;BME280;50528;48.514;14.394;2023-03-20T02:09:27;93880.47;;;7.89;74.96
64211;BME280;50528;48.514;14.394;2023-03-20T02:10:05;93879.98;;;7.90;74.97
64211;BME280;50528;48.514;14.394;2023-03-20T02:10:48;93882.24;;;7.91;74.95
64211;BME280;50528;48.514;14.394;2023-03-20T02:11:30;93880.10;;;7.91;74.93
64211;BME280;50528;48.514;14.394;2023-03-20T02:12:04;93877.67;;;7.93;74.98
64211;BME280;50528;48.514;14.394;2023-03-20T02:12:38;93883.83;;;7.93;74.92
64211;BME280;50528;48.514;14.394;2023-03-20T02:13:14;93881.09;;;7.93;74.97
64211;BME280;50528;48.514;14.394;2023-03-20T02:13:52;93883.05;;;7.94;74.93
64211;BME280;50528;48.514;14.394;2023-03-20T02:14:27;93883.65;;;7.96;74.94
64211;BME280;50528;48.514;14.394;2023-03-20T02:15:11;93882.43;;;7.94;75.07
64211;BME280;50528;48.514;14.394;2023-03-20T02:16:16;93884.98;;;7.91;74.95
64211;BME280;50528;48.514;14.394;2023-03-20T02:17:08;93882.13;;;7.91;74.91
64211;BME280;50528;48.514;14.394;2023-03-20T02:17:46;93881.13;;;7.90;74.96
64211;BME280;50528;48.514;14.394;2023-03-20T02:18:20;93884.84;;;7.92;74.99
64211;BME280;50528;48.514;14.394;2023-03-20T02:18:56;93883.30;;;7.93;74.96
64211;BME280;50528;48.514;14.394;2023-03-20T02:19:57;93882.96;;;7.94;75.00
64211;BME280;50528;48.514;14.394;2023-03-20T02:23:23;93883.02;;;7.95;74.94
64211;BME280;50528;48.514;14.394;2023-03-20T02:26:13;93881.31;;;7.94;74.87
64211;BME280;50528;48.514;14.394;2023-03-20T02:36:29;93880.08;;;7.86;75.42
64211;BME280;50528;48.514;14.394;2023-03-20T02:40:47;93880.47;;;7.91;75.88
64211;BME280;50528;48.514;14.394;2023-03-20T02:41:42;93878.27;;;7.91;75.67
64211;BME280;50528;48.514;14.394;2023-03-20T02:44:20;93880.98;;;7.98;75.76
64211;BME280;50528;48.514;14.394;2023-03-20T02:45:48;93880.84;;;8.01;75.75
64211;BME280;50528;48.514;14.394;2023-03-20T02:47:22;93877.20;;;8.02;75.77
64211;BME280;50528;48.514;14.394;2023-03-20T02:49:00;93879.71;;;8.07;75.64
64211;BME280;50528;48.514;14.394;2023-03-20T02:52:21;93878.57;;;8.07;75.25
64211;BME280;50528;48.514;14.394;2023-03-20T02:53:23;93878.36;;;8.07;75.20
64211;BME280;50528;48.514;14.394;2023-03-20T02:55:25;93876.36;;;8.07;75.36
64211;BME280;50528;48.514;14.394;2023-03-20T02:58:07;93874.92;;;8.01;75.13
64211;BME280;50528;48.514;14.394;2023-03-20T02:59:11;93876.21;;;8.00;75.13
64211;BME280;50528;48.514;14.394;2023-03-20T03:00:19;93875.80;;;7.98;75.05
64211;BME280;50528;48.514;14.394;2023-03-20T03:00:59;93876.05;;;7.95;74.98
64211;BME280;50528;48.514;14.394;2023-03-20T03:01:40;93878.67;;;7.95;74.96
64211;BME280;50528;48.514;14.394;2023-03-20T03:02:18;93875.73;;;7.94;74.87
64211;BME280;50528;48.514;14.394;2023-03-20T03:04:07;93875.17;;;7.88;74.77
64211;BME280;50528;48.514;14.394;2023-03-20T03:04:48;93881.84;;;7.84;74.73
64211;BME280;50528;48.514;14.394;2023-03-20T03:05:31;93877.80;;;7.81;74.72
64211;BME280;50528;48.514;14.394;2023-03-20T03:06:16;93879.02;;;7.79;74.70
64211;BME280;50528;48.514;14.394;2023-03-20T03:06:51;93878.61;;;7.78;74.68
64211;BME280;50528;48.514;14.394;2023-03-20T03:07:31;93880.22;;;7.76;74.78
64211;BME280;50528;48.514;14.394;2023-03-20T03:08:07;93879.39;;;7.75;74.78
64211;BME280;50528;48.514;14.394;2023-03-20T03:08:47;93878.55;;;7.75;74.81
64211;BME280;50528;48.514;14.394;2023-03-20T03:09:29;93878.88;;;7.74;74.75
64211;BME280;50528;48.514;14.394;2023-03-20T03:10:09;93880.83;;;7.71;74.77
64211;BME280;50528;48.514;14.394;2023-03-20T03:10:48;93878.80;;;7.69;74.76
64211;BME280;50528;48.514;14.394;2023-03-20T03:11:23;93882.19;;;7.69;74.78
64211;BME280;50528;48.514;14.394;2023-03-20T03:12:05;93882.37;;;7.68;74.72
64211;BME280;50528;48.514;14.394;2023-03-20T03:12:43;93884.40;;;7.66;74.77
64211;BME280;50528;48.514;14.394;2023-03-20T03:13:23;93883.02;;;7.62;74.75
64211;BME280;50528;48.514;14.394;2023-03-20T03:13:59;93883.80;;;7.60;74.68
64211;BME280;50528;48.514;14.394;2023-03-20T03:14:39;93883.76;;;7.60;74.78
64211;BME280;50528;48.514;14.394;2023-03-20T03:15:26;93883.41;;;7.59;74.73
64211;BME280;50528;48.514;14.394;2023-03-20T03:16:06;93879.39;;;7.54;74.64
64211;BME280;50528;48.514;14.394;2023-03-20T03:16:43;93881.00;;;7.51;74.72
64211;BME280;50528;48.514;14.394;2023-03-20T03:17:19;93877.56;;;7.50;74.73
64211;BME280;50528;48.514;14.394;2023-03-20T03:17:54;93880.27;;;7.49;74.96
64211;BME280;50528;48.514;14.394;2023-03-20T03:18:30;93878.73;;;7.49;74.82
64211;BME280;50528;48.514;14.394;2023-03-20T03:19:18;93878.77;;;7.48;74.82
64211;BME280;50528;48.514;14.394;2023-03-20T03:19:57;93878.84;;;7.46;74.90
64211;BME280;50528;48.514;14.394;2023-03-20T03:20:37;93882.52;;;7.45;74.88
64211;BME280;50528;48.514;14.394;2023-03-20T03:21:14;93878.06;;;7.44;74.95
64211;BME280;50528;48.514;14.394;2023-03-20T03:21:49;93878.71;;;7.43;74.88
64211;BME280;50528;48.514;14.394;2023-03-20T03:22:24;93878.94;;;7.44;74.91
64211;BME280;50528;48.514;14.394;2023-03-20T03:22:59;93879.79;;;7.45;74.85
64211;BME280;50528;48.514;14.394;2023-03-20T03:23:49;93879.86;;;7.45;74.94
64211;BME280;50528;48.514;14.394;2023-03-20T03:24:36;93877.30;;;7.44;74.87
64211;BME280;50528;48.514;14.394;2023-03-20T03:25:14;93881.25;;;7.42;74.91
64211;BME280;50528;48.514;14.394;2023-03-20T03:25:49;93879.58;;;7.43;74.93
64211;BME280;50528;48.514;14.394;2023-03-20T03:26:26;93879.89;;;7.43;74.93
64211;BME280;50528;48.514;14.394;2023-03-20T03:27:08;93880.98;;;7.41;74.93
64211;BME280;50528;48.514;14.394;2023-03-20T03:27:47;93882.42;;;7.40;74.97
64211;BME280;50528;48.514;14.394;2023-03-20T03:28:34;93884.84;;;7.41;74.99
64211;BME280;50528;48.514;14.394;2023-03-20T03:29:14;93884.06;;;7.41;75.05
64211;BME280;50528;48.514;14.394;2023-03-20T03:29:56;93880.76;;;7.39;75.14
64211;BME280;50528;48.514;14.394;2023-03-20T03:30:35;93882.70;;;7.37;75.11
64211;BME280;50528;48.514;14.394;2023-03-20T03:31:14;93882.67;;;7.38;75.16
64211;BME280;50528;48.514;14.394;2023-03-20T03:31:48;93883.41;;;7.36;75.12
64211;BME280;50528;48.514;14.394;2023-03-20T03:32:28;93881.55;;;7.35;75.12
64211;BME280;50528;48.514;14.394;2023-03-20T03:33:13;93880.98;;;7.35;75.37
64211;BME280;50528;48.514;14.394;2023-03-20T03:33:52;93884.27;;;7.33;75.30
64211;BME280;50528;48.514;14.394;2023-03-20T03:34:27;93881.39;;;7.31;75.19
64211;BME280;50528;48.514;14.394;2023-03-20T03:35:03;93888.33;;;7.29;75.10
64211;BME280;50528;48.514;14.394;2023-03-20T03:35:39;93883.23;;;7.27;75.09
64211;BME280;50528;48.514;14.394;2023-03-20T03:37:15;93886.54;;;7.23;75.18
64211;BME280;50528;48.514;14.394;2023-03-20T03:38:55;93884.71;;;7.15;75.11
64211;BME280;50528;48.514;14.394;2023-03-20T03:40:34;93867.83;;;7.02;75.02
64211;BME280;50528;48.514;14.394;2023-03-20T03:42:15;93880.38;;;7.05;75.01
64211;BME280;50528;48.514;14.394;2023-03-20T03:42:56;93885.58;;;7.03;74.93
64211;BME280;50528;48.514;14.394;2023-03-20T03:44:58;93884.31;;;6.98;74.83
64211;BME280;50528;48.514;14.394;2023-03-20T03:45:37;93885.55;;;6.95;74.76
64211;BME280;50528;48.514;14.394;2023-03-20T03:47:21;93888.58;;;6.93;74.72
64211;BME280;50528;48.514;14.394;2023-03-20T03:47:32;93885.56;;;6.87;74.59
64211;BME280;50528;48.514;14.394;2023-03-20T03:48:31;93887.34;;;6.86;74.63
64211;BME280;50528;48.514;14.394;2023-03-20T03:49:10;93888.02;;;6.81;74.48
64211;BME280;50528;48.514;14.394;2023-03-20T03:49:57;93889.69;;;6.80;74.44
64211;BME280;50528;48.514;14.394;2023-03-20T03:50:43;93889.17;;;6.78;74.40
64211;BME280;50528;48.514;14.394;2023-03-20T03:51:23;93890.26;;;6.77;74.39
64211;BME280;50528;48.514;14.394;2023-03-20T03:52:10;93888.35;;;6.75;74.28
64211;BME280;50528;48.514;14.394;2023-03-20T03:52:48;93888.84;;;6.73;74.30
64211;BME280;50528;48.514;14.394;2023-03-20T03:53:27;93891.70;;;6.73;74.28
64211;BME280;50528;48.514;14.394;2023-03-20T03:54:10;93895.17;;;6.72;74.20
64211;BME280;50528;48.514;14.394;2023-03-20T03:54:56;93897.52;;;6.66;74.24
64211;BME280;50528;48.514;14.394;2023-03-20T03:55:37;93897.55;;;6.60;74.21
64211;BME280;50528;48.514;14.394;2023-03-20T03:56:19;93899.66;;;6.59;74.12
64211;BME280;50528;48.514;14.394;2023-03-20T03:56:58;93900.73;;;6.59;74.14
64211;BME280;50528;48.514;14.394;2023-03-20T03:57:47;93898.18;;;6.58;74.07
64211;BME280;50528;48.514;14.394;2023-03-20T03:58:32;93899.07;;;6.57;73.95
64211;BME280;50528;48.514;14.394;2023-03-20T03:59:15;93899.58;;;6.55;73.97
64211;BME280;50528;48.514;14.394;2023-03-20T03:59:51;93897.67;;;6.53;74.04
64211;BME280;50528;48.514;14.394;2023-03-20T04:00:26;93897.20;;;6.53;73.97
64211;BME280;50528;48.514;14.394;2023-03-20T04:01:01;93901.42;;;6.53;73.97
64211;BME280;50528;48.514;14.394;2023-03-20T04:01:37;93898.53;;;6.52;73.89
64211;BME280;50528;48.514;14.394;2023-03-20T04:02:17;93895.58;;;6.51;73.76
64211;BME280;50528;48.514;14.394;2023-03-20T04:02:55;93898.42;;;6.51;73.75
64211;BME280;50528;48.514;14.394;2023-03-20T04:03:32;93895.82;;;6.49;73.79